Time;durP1;ratioP1;P1;durP2;ratioP2;P2;SDS_P1;SDS_P2;PMS_P1;PMS_P2;Temp;Humidity;BMP_temperature;BMP_pressure;BME280_temperature;BME280_humidity;BME280_pressure;Samples;Min_cycle;Max_cycle;Signal;HPM_P1;HPM_P2
2021/09/17 00:00:02;;;;;;;31.17;4.15;;;;;;;;;;5014730;28;20036;-37
2021/09/17 00:02:29;;;;;;;36.22;4.60;;;;;;;;;;5025121;28;20397;-39
2021/09/17 00:04:56;;;;;;;32.03;3.70;;;;;;;;;;5018357;28;20489;-38
2021/09/17 00:07:24;;;;;;;30.98;3.72;;;;;;;;;;5021839;28;20050;-39
2021/09/17 00:09:51;;;;;;;44.85;4.25;;;;;;;;;;5021690;28;20029;-41
2021/09/17 00:12:18;;;;;;;37.10;4.18;;;;;;;;;;5019986;28;20549;-40
2021/09/17 00:14:45;;;;;;;35.17;4.30;;;;;;;;;;5017974;28;20382;-39
2021/09/17 00:17:12;;;;;;;40.83;4.15;;;;;;;;;;5017885;28;20025;-38
2021/09/17 00:19:40;;;;;;;30.25;4.07;;;;;;;;;;5021089;28;20444;-38
2021/09/17 00:22:07;;;;;;;32.45;4.28;;;;;;;;;;5020598;28;20025;-38
2021/09/17 00:24:34;;;;;;;23.83;3.42;;;;;;;;;;5021444;28;20097;-38
2021/09/17 00:27:01;;;;;;;21.40;3.53;;;;;;;;;;5019661;28;20123;-38
2021/09/17 00:29:28;;;;;;;21.80;3.50;;;;;;;;;;5021605;28;20021;-36
2021/09/17 00:31:55;;;;;;;34.78;4.38;;;;;;;;;;5023730;28;20076;-45
2021/09/17 00:34:24;;;;;;;20.98;3.20;;;;;;;;;;5013393;28;20013;-42
2021/09/17 00:36:51;;;;;;;24.02;4.15;;;;;;;;;;5019465;28;20029;-48
2021/09/17 00:39:18;;;;;;;21.10;3.53;;;;;;;;;;5016091;28;20472;-38
2021/09/17 00:41:45;;;;;;;32.42;3.65;;;;;;;;;;5020654;28;20440;-36
2021/09/17 00:44:12;;;;;;;35.47;4.25;;;;;;;;;;5019779;28;20061;-40
2021/09/17 00:46:39;;;;;;;31.85;4.50;;;;;;;;;;5020857;28;20437;-41
2021/09/17 00:49:07;;;;;;;29.40;3.70;;;;;;;;;;5017938;28;20112;-43
2021/09/17 00:51:34;;;;;;;28.83;3.55;;;;;;;;;;5028089;28;20114;-41
2021/09/17 00:54:01;;;;;;;32.00;7.10;;;;;;;;;;5016695;28;20025;-43
2021/09/17 00:56:28;;;;;;;33.05;6.95;;;;;;;;;;5024306;28;20056;-45
2021/09/17 00:58:55;;;;;;;54.50;11.88;;;;;;;;;;5016272;28;20026;-48
2021/09/17 01:01:22;;;;;;;68.47;16.55;;;;;;;;;;5017333;28;20034;-47
2021/09/17 01:03:49;;;;;;;77.50;18.52;;;;;;;;;;5012019;28;20056;-47
2021/09/17 01:06:16;;;;;;;72.28;19.23;;;;;;;;;;5016237;28;20037;-49
2021/09/17 01:08:43;;;;;;;70.75;18.35;;;;;;;;;;5019628;28;20033;-45
2021/09/17 01:11:11;;;;;;;70.60;17.65;;;;;;;;;;5017684;28;20441;-38
2021/09/17 01:13:38;;;;;;;63.80;17.55;;;;;;;;;;5017925;28;20026;-45
2021/09/17 01:16:05;;;;;;;54.13;16.42;;;;;;;;;;5011344;28;20592;-42
2021/09/17 01:18:32;;;;;;;64.18;14.95;;;;;;;;;;5020510;28;20034;-44
2021/09/17 01:21:00;;;;;;;62.53;14.65;;;;;;;;;;5016661;28;20024;-45
2021/09/17 01:23:27;;;;;;;55.97;16.77;;;;;;;;;;5017165;28;20026;-46
2021/09/17 01:25:54;;;;;;;47.67;14.95;;;;;;;;;;5012362;28;20044;-45
2021/09/17 01:28:26;;;;;;;56.72;15.88;;;;;;;;;;5018737;28;20121;-43
2021/09/17 01:30:53;;;;;;;51.83;13.73;;;;;;;;;;5023144;28;20079;-45
2021/09/17 01:33:20;;;;;;;45.53;14.07;;;;;;;;;;5022505;28;20284;-39
2021/09/17 01:35:55;;;;;;;56.17;13.20;;;;;;;;;;5014427;28;20109;-52
2021/09/17 01:38:22;;;;;;;49.05;13.63;;;;;;;;;;5019802;28;20030;-54
2021/09/17 01:40:49;;;;;;;45.47;12.40;;;;;;;;;;5015049;28;20065;-48
2021/09/17 01:43:16;;;;;;;35.47;11.63;;;;;;;;;;5017638;28;20053;-46
2021/09/17 01:45:43;;;;;;;45.17;12.40;;;;;;;;;;5020297;28;20026;-53
2021/09/17 01:48:10;;;;;;;38.08;11.18;;;;;;;;;;5025178;28;20041;-54
2021/09/17 01:50:37;;;;;;;40.95;11.35;;;;;;;;;;5017879;28;20047;-51
2021/09/17 01:53:04;;;;;;;41.10;10.63;;;;;;;;;;5019881;28;20029;-48
2021/09/17 01:55:31;;;;;;;34.47;10.35;;;;;;;;;;5013027;28;20449;-52
2021/09/17 01:57:59;;;;;;;39.53;10.02;;;;;;;;;;5011017;28;20386;-56
2021/09/17 02:00:26;;;;;;;34.78;10.10;;;;;;;;;;5010767;28;20485;-54
2021/09/17 02:02:53;;;;;;;44.75;9.90;;;;;;;;;;5010323;28;20025;-55
2021/09/17 02:05:20;;;;;;;47.00;9.07;;;;;;;;;;5008832;28;20033;-52
2021/09/17 02:07:47;;;;;;;29.80;8.35;;;;;;;;;;5009092;28;20371;-54
2021/09/17 02:10:14;;;;;;;30.48;8.55;;;;;;;;;;5011508;28;20473;-48
2021/09/17 02:12:42;;;;;;;32.08;7.80;;;;;;;;;;5010105;28;20386;-46
2021/09/17 02:15:10;;;;;;;36.58;8.23;;;;;;;;;;5009444;28;20026;-54
2021/09/17 02:17:37;;;;;;;26.80;7.50;;;;;;;;;;5009712;28;20496;-48
2021/09/17 02:20:05;;;;;;;31.35;7.35;;;;;;;;;;5010930;28;20101;-39
2021/09/17 02:22:34;;;;;;;28.58;7.05;;;;;;;;;;5011379;28;20025;-51
2021/09/17 02:25:01;;;;;;;27.75;7.07;;;;;;;;;;5011311;28;20025;-50
2021/09/17 02:27:29;;;;;;;23.52;6.75;;;;;;;;;;5025425;28;20057;-52
2021/09/17 02:29:56;;;;;;;27.00;6.70;;;;;;;;;;5009237;28;20033;-49
2021/09/17 02:32:23;;;;;;;21.40;6.22;;;;;;;;;;5010519;28;20026;-56
2021/09/17 02:34:50;;;;;;;26.52;6.05;;;;;;;;;;5011556;28;20022;-58
2021/09/17 02:37:17;;;;;;;24.83;6.65;;;;;;;;;;5014834;28;20018;-57
2021/09/17 02:39:44;;;;;;;23.90;6.05;;;;;;;;;;4928131;28;2379165;-54
2021/09/17 02:42:11;;;;;;;27.60;6.05;;;;;;;;;;5021975;28;20056;-48
2021/09/17 02:44:38;;;;;;;26.42;5.60;;;;;;;;;;5035422;28;20018;-42
2021/09/17 02:47:05;;;;;;;18.42;5.70;;;;;;;;;;5036391;28;20453;-56
2021/09/17 02:49:33;;;;;;;16.20;5.72;;;;;;;;;;5055046;28;20036;-52
2021/09/17 02:52:01;;;;;;;18.70;4.97;;;;;;;;;;5055721;28;20025;-57
2021/09/17 02:54:28;;;;;;;21.38;5.68;;;;;;;;;;5055250;28;20373;-52
2021/09/17 02:56:55;;;;;;;22.23;5.65;;;;;;;;;;5050081;28;20032;-43
2021/09/17 02:59:22;;;;;;;23.05;5.25;;;;;;;;;;5035538;28;20053;-55
2021/09/17 03:01:49;;;;;;;18.27;4.68;;;;;;;;;;5035078;28;20029;-58
2021/09/17 03:04:16;;;;;;;22.23;5.20;;;;;;;;;;5034793;28;20020;-44
2021/09/17 03:06:43;;;;;;;12.25;4.20;;;;;;;;;;5034472;28;20056;-43
2021/09/17 03:09:10;;;;;;;16.52;4.70;;;;;;;;;;5048354;28;20028;-57
2021/09/17 03:11:37;;;;;;;20.20;5.00;;;;;;;;;;5054609;28;20495;-54
2021/09/17 03:14:04;;;;;;;13.43;4.65;;;;;;;;;;5054810;28;20029;-51
2021/09/17 03:16:31;;;;;;;13.90;4.35;;;;;;;;;;5054858;28;20021;-50
2021/09/17 03:18:58;;;;;;;17.92;4.85;;;;;;;;;;5035058;28;20021;-52
2021/09/17 03:21:25;;;;;;;12.27;4.15;;;;;;;;;;5034849;28;20076;-45
2021/09/17 03:23:52;;;;;;;15.15;4.22;;;;;;;;;;5034903;28;20152;-48
2021/09/17 03:26:19;;;;;;;12.95;4.07;;;;;;;;;;5034549;28;20080;-43
2021/09/17 03:28:47;;;;;;;11.52;4.03;;;;;;;;;;5041378;28;20060;-49
2021/09/17 03:31:14;;;;;;;12.48;4.53;;;;;;;;;;5054424;28;20144;-57
2021/09/17 03:33:41;;;;;;;13.23;4.13;;;;;;;;;;5054536;28;20053;-57
2021/09/17 03:36:08;;;;;;;11.55;3.97;;;;;;;;;;5054631;28;20071;-56
2021/09/17 03:38:35;;;;;;;13.10;3.90;;;;;;;;;;5039426;28;20105;-57
2021/09/17 03:41:03;;;;;;;12.70;4.22;;;;;;;;;;5029118;28;20573;-56
2021/09/17 03:43:30;;;;;;;16.35;3.50;;;;;;;;;;5014900;28;20030;-57
2021/09/17 03:45:57;;;;;;;11.52;3.80;;;;;;;;;;5014252;28;20036;-58
2021/09/17 03:48:24;;;;;;;9.95;3.63;;;;;;;;;;5020307;28;20041;-54
2021/09/17 03:50:52;;;;;;;9.55;3.40;;;;;;;;;;5054700;28;20036;-56
2021/09/17 03:53:19;;;;;;;14.30;3.70;;;;;;;;;;5054013;28;20481;-54
2021/09/17 03:55:46;;;;;;;10.45;3.28;;;;;;;;;;5053921;28;20056;-50
2021/09/17 03:58:13;;;;;;;5.88;2.72;;;;;;;;;;5050612;28;20040;-56
2021/09/17 04:00:40;;;;;;;17.13;4.15;;;;;;;;;;5030869;28;20367;-57
2021/09/17 04:03:07;;;;;;;11.40;3.30;;;;;;;;;;5032581;28;20026;-57
2021/09/17 04:05:34;;;;;;;11.32;3.35;;;;;;;;;;5033813;28;20416;-49
2021/09/17 04:08:01;;;;;;;12.90;3.70;;;;;;;;;;5032386;28;20033;-48
2021/09/17 04:10:28;;;;;;;9.88;3.60;;;;;;;;;;5031419;28;20033;-55
2021/09/17 04:12:55;;;;;;;8.35;3.10;;;;;;;;;;5033889;28;20500;-51
2021/09/17 04:15:22;;;;;;;8.52;2.75;;;;;;;;;;5033831;28;20021;-53
2021/09/17 04:17:50;;;;;;;10.23;3.20;;;;;;;;;;5033558;28;20029;-55
2021/09/17 04:20:17;;;;;;;9.88;3.60;;;;;;;;;;5042123;28;20070;-54
2021/09/17 04:22:44;;;;;;;10.35;3.50;;;;;;;;;;5053362;28;20031;-52
2021/09/17 04:25:12;;;;;;;9.30;2.97;;;;;;;;;;5053473;28;20028;-57
2021/09/17 04:27:40;;;;;;;10.13;3.30;;;;;;;;;;5053437;28;20354;-57
2021/09/17 04:30:08;;;;;;;13.75;3.53;;;;;;;;;;5040128;28;20018;-57
2021/09/17 04:32:36;;;;;;;7.53;3.20;;;;;;;;;;5033505;28;20072;-46
2021/09/17 04:35:03;;;;;;;10.27;2.67;;;;;;;;;;5033554;28;20470;-49
2021/09/17 04:37:31;;;;;;;12.23;3.13;;;;;;;;;;5033376;28;20029;-57
2021/09/17 04:39:58;;;;;;;10.13;3.20;;;;;;;;;;5030926;28;20049;-51
2021/09/17 04:42:25;;;;;;;9.55;3.13;;;;;;;;;;5033394;28;20385;-54
2021/09/17 04:44:52;;;;;;;8.90;3.00;;;;;;;;;;5033293;28;20045;-57
2021/09/17 04:47:19;;;;;;;4.97;2.65;;;;;;;;;;5033079;28;20038;-56
2021/09/17 04:49:46;;;;;;;8.10;2.90;;;;;;;;;;5030658;28;20508;-48
2021/09/17 04:52:13;;;;;;;9.45;2.90;;;;;;;;;;5013744;28;20026;-55
2021/09/17 04:54:40;;;;;;;7.78;2.90;;;;;;;;;;5013212;28;20022;-56
2021/09/17 04:57:07;;;;;;;6.15;2.60;;;;;;;;;;5012268;28;20061;-49
2021/09/17 04:59:35;;;;;;;7.55;2.45;;;;;;;;;;5013913;28;20377;-51
2021/09/17 05:02:02;;;;;;;8.43;2.85;;;;;;;;;;5049170;28;20066;-51
2021/09/17 05:04:29;;;;;;;9.25;2.47;;;;;;;;;;5052662;28;20104;-54
2021/09/17 05:06:56;;;;;;;6.05;2.63;;;;;;;;;;5052934;28;20170;-50
2021/09/17 05:09:23;;;;;;;7.25;2.40;;;;;;;;;;5052643;28;20029;-47
2021/09/17 05:11:50;;;;;;;5.65;2.10;;;;;;;;;;5044598;28;20123;-57
2021/09/17 05:14:17;;;;;;;6.35;2.58;;;;;;;;;;5052657;28;20020;-52
2021/09/17 05:16:45;;;;;;;6.93;2.30;;;;;;;;;;5052554;28;20651;-55
2021/09/17 05:19:13;;;;;;;10.27;2.50;;;;;;;;;;5052461;28;20071;-49
2021/09/17 05:21:40;;;;;;;9.27;2.72;;;;;;;;;;5044488;28;20547;-43
2021/09/17 05:24:07;;;;;;;10.27;2.65;;;;;;;;;;5052566;28;20025;-56
2021/09/17 05:26:34;;;;;;;6.00;2.20;;;;;;;;;;5052082;28;20026;-55
2021/09/17 05:29:01;;;;;;;6.00;2.53;;;;;;;;;;5052335;28;20527;-52
2021/09/17 05:31:28;;;;;;;8.52;2.60;;;;;;;;;;5031833;28;20025;-51
2021/09/17 05:33:55;;;;;;;4.95;2.03;;;;;;;;;;5032695;28;20021;-56
2021/09/17 05:36:22;;;;;;;9.10;2.58;;;;;;;;;;5032033;28;20021;-55
2021/09/17 05:38:50;;;;;;;8.38;2.47;;;;;;;;;;5032152;28;20029;-55
2021/09/17 05:41:17;;;;;;;4.78;2.33;;;;;;;;;;5030952;28;20173;-51
2021/09/17 05:43:44;;;;;;;6.93;2.38;;;;;;;;;;5032277;28;20029;-55
2021/09/17 05:46:11;;;;;;;4.82;1.90;;;;;;;;;;5031965;28;20018;-55
2021/09/17 05:48:38;;;;;;;4.85;2.05;;;;;;;;;;5032048;28;20104;-48
2021/09/17 05:51:05;;;;;;;5.97;2.50;;;;;;;;;;5031840;28;20033;-49
2021/09/17 05:53:32;;;;;;;5.20;2.28;;;;;;;;;;5031347;28;20030;-50
2021/09/17 05:55:59;;;;;;;4.57;2.35;;;;;;;;;;5031887;28;20025;-52
2021/09/17 05:58:30;;;;;;;8.00;2.47;;;;;;;;;;5032084;28;20390;-50
2021/09/17 06:00:58;;;;;;;2.90;1.83;;;;;;;;;;5031926;28;20024;-43
2021/09/17 06:03:25;;;;;;;5.30;2.30;;;;;;;;;;5047269;28;20087;-52
2021/09/17 06:05:52;;;;;;;5.90;2.00;;;;;;;;;;5051671;28;20108;-56
2021/09/17 06:08:19;;;;;;;4.45;1.98;;;;;;;;;;5051754;28;20397;-57
2021/09/17 06:10:46;;;;;;;4.82;2.17;;;;;;;;;;5051597;28;20021;-55
2021/09/17 06:13:13;;;;;;;5.13;2.30;;;;;;;;;;5031600;28;20080;-54
2021/09/17 06:15:41;;;;;;;4.00;2.28;;;;;;;;;;5032044;28;20091;-57
2021/09/17 06:18:08;;;;;;;6.70;2.30;;;;;;;;;;5031181;28;20018;-56
2021/09/17 06:20:35;;;;;;;4.95;2.30;;;;;;;;;;5031876;28;20071;-52
2021/09/17 06:23:02;;;;;;;4.63;1.90;;;;;;;;;;5028865;28;20640;-54
2021/09/17 06:25:29;;;;;;;5.13;2.05;;;;;;;;;;5031754;28;20064;-53
2021/09/17 06:27:56;;;;;;;4.13;1.92;;;;;;;;;;5031235;28;20449;-52
2021/09/17 06:30:23;;;;;;;5.28;1.95;;;;;;;;;;5030443;28;20396;-56
2021/09/17 06:32:50;;;;;;;8.85;2.40;;;;;;;;;;5035626;28;20025;-55
2021/09/17 06:35:17;;;;;;;5.15;1.80;;;;;;;;;;5051723;28;20488;-54
2021/09/17 06:37:45;;;;;;;3.83;2.10;;;;;;;;;;5050091;28;20500;-46
2021/09/17 06:40:13;;;;;;;8.02;2.40;;;;;;;;;;5051007;28;20072;-53
2021/09/17 06:42:40;;;;;;;3.08;2.05;;;;;;;;;;5043981;28;20037;-50
2021/09/17 06:45:08;;;;;;;4.15;2.22;;;;;;;;;;5051828;28;20473;-50
2021/09/17 06:47:55;;;;;;;4.93;2.20;;;;;;;;;;5050887;28;20401;-56
2021/09/17 06:50:23;;;;;;;6.78;1.83;;;;;;;;;;5051279;28;20029;-52
2021/09/17 06:52:52;;;;;;;4.43;2.10;;;;;;;;;;5043923;28;20025;-50
2021/09/17 06:55:20;;;;;;;3.35;2.10;;;;;;;;;;5051351;28;20029;-52
2021/09/17 06:57:48;;;;;;;4.63;2.05;;;;;;;;;;5051118;28;20016;-53
2021/09/17 07:00:16;;;;;;;4.55;2.30;;;;;;;;;;5051191;28;20021;-44
2021/09/17 07:02:44;;;;;;;5.75;1.88;;;;;;;;;;5045672;28;20063;-45
2021/09/17 07:05:12;;;;;;;5.05;2.10;;;;;;;;;;5049202;28;20023;-48
2021/09/17 07:07:39;;;;;;;5.03;2.33;;;;;;;;;;5050814;28;20021;-43
2021/09/17 07:10:07;;;;;;;4.85;1.95;;;;;;;;;;5050980;28;20033;-50
2021/09/17 07:12:35;;;;;;;5.45;2.15;;;;;;;;;;5050950;28;20021;-46
2021/09/17 07:15:02;;;;;;;3.75;2.20;;;;;;;;;;5042754;28;20396;-51
2021/09/17 07:17:29;;;;;;;6.22;2.15;;;;;;;;;;5050967;28;20028;-51
2021/09/17 07:19:56;;;;;;;4.72;2.10;;;;;;;;;;5050768;28;20108;-50
2021/09/17 07:22:23;;;;;;;4.47;1.80;;;;;;;;;;5054493;28;20124;-50
2021/09/17 07:24:50;;;;;;;3.20;1.83;;;;;;;;;;5036645;28;20074;-44
2021/09/17 07:27:18;;;;;;;4.63;2.10;;;;;;;;;;5033578;28;20396;-53
2021/09/17 07:29:45;;;;;;;5.28;1.85;;;;;;;;;;5034307;28;20036;-54
2021/09/17 07:32:12;;;;;;;5.38;2.00;;;;;;;;;;5034545;28;20010;-56
2021/09/17 07:34:39;;;;;;;4.22;1.90;;;;;;;;;;5032671;28;20500;-47
2021/09/17 07:37:06;;;;;;;4.45;1.80;;;;;;;;;;5034019;28;20020;-51
2021/09/17 07:39:33;;;;;;;2.83;1.70;;;;;;;;;;5029450;28;20041;-54
2021/09/17 07:42:00;;;;;;;7.40;1.70;;;;;;;;;;5034262;28;20547;-55
2021/09/17 07:44:27;;;;;;;6.30;2.03;;;;;;;;;;5031115;28;20056;-54
2021/09/17 07:46:55;;;;;;;4.03;1.92;;;;;;;;;;5034474;28;20025;-53
2021/09/17 07:49:22;;;;;;;4.47;1.85;;;;;;;;;;5034072;28;20033;-49
2021/09/17 07:51:49;;;;;;;5.47;2.22;;;;;;;;;;5034263;28;20013;-54
2021/09/17 07:54:16;;;;;;;5.55;1.85;;;;;;;;;;5033424;28;20087;-54
2021/09/17 07:56:43;;;;;;;4.28;2.20;;;;;;;;;;5054356;28;20370;-51
2021/09/17 07:59:10;;;;;;;4.25;1.85;;;;;;;;;;5054308;28;20404;-52
2021/09/17 08:01:37;;;;;;;3.70;1.90;;;;;;;;;;5052450;28;20029;-53
2021/09/17 08:04:05;;;;;;;5.40;2.22;;;;;;;;;;5042134;28;20453;-43
2021/09/17 08:06:32;;;;;;;6.53;2.10;;;;;;;;;;5033315;28;20052;-48
2021/09/17 08:08:59;;;;;;;4.32;1.77;;;;;;;;;;5034222;28;20049;-45
2021/09/17 08:11:26;;;;;;;4.00;1.77;;;;;;;;;;5033276;28;20022;-46
2021/09/17 08:13:53;;;;;;;4.55;2.10;;;;;;;;;;5033942;28;20450;-53
2021/09/17 08:16:20;;;;;;;7.78;1.85;;;;;;;;;;5031246;28;20028;-50
2021/09/17 08:18:47;;;;;;;2.53;1.52;;;;;;;;;;5033969;28;20077;-48
2021/09/17 08:21:14;;;;;;;7.82;1.90;;;;;;;;;;5032120;28;20026;-51
2021/09/17 08:23:41;;;;;;;5.10;2.00;;;;;;;;;;5033418;28;20464;-49
2021/09/17 08:26:09;;;;;;;4.30;1.90;;;;;;;;;;5031262;28;20479;-50
2021/09/17 08:28:36;;;;;;;4.65;1.92;;;;;;;;;;5033914;28;20029;-54
2021/09/17 08:31:03;;;;;;;9.77;2.40;;;;;;;;;;5033209;28;20026;-48
2021/09/17 08:33:31;;;;;;;4.53;2.00;;;;;;;;;;5032047;28;20076;-50
2021/09/17 08:35:59;;;;;;;4.10;1.67;;;;;;;;;;5030990;28;20018;-56
2021/09/17 08:38:26;;;;;;;6.50;2.17;;;;;;;;;;5033435;28;20025;-50
2021/09/17 08:40:57;;;;;;;3.85;1.73;;;;;;;;;;5032727;28;20049;-45
2021/09/17 08:43:24;;;;;;;3.72;2.30;;;;;;;;;;5033290;28;20021;-52
2021/09/17 08:45:52;;;;;;;5.13;1.70;;;;;;;;;;5033977;28;20104;-56
2021/09/17 08:48:26;;;;;;;6.65;2.00;;;;;;;;;;5053096;28;20033;-54
2021/09/17 08:50:53;;;;;;;2.72;1.60;;;;;;;;;;5053078;28;20025;-56
2021/09/17 08:53:20;;;;;;;5.43;2.10;;;;;;;;;;5051597;28;20060;-51
2021/09/17 08:55:48;;;;;;;2.45;1.60;;;;;;;;;;5045526;28;20040;-54
2021/09/17 08:58:15;;;;;;;3.53;1.70;;;;;;;;;;5033270;28;20172;-52
2021/09/17 09:00:43;;;;;;;3.78;1.90;;;;;;;;;;5033433;28;20022;-47
2021/09/17 09:03:11;;;;;;;3.92;2.00;;;;;;;;;;5031171;28;20410;-55
2021/09/17 09:05:39;;;;;;;3.08;1.63;;;;;;;;;;5031000;28;20029;-44
2021/09/17 09:08:06;;;;;;;4.55;1.92;;;;;;;;;;5031857;28;20033;-51
2021/09/17 09:10:34;;;;;;;3.03;1.60;;;;;;;;;;5032820;28;20096;-51
2021/09/17 09:13:03;;;;;;;3.03;1.73;;;;;;;;;;5032334;28;20022;-51
2021/09/17 09:15:32;;;;;;;4.97;1.95;;;;;;;;;;5032478;28;20389;-41
2021/09/17 09:18:02;;;;;;;1.58;1.35;;;;;;;;;;5045813;28;20100;-51
2021/09/17 09:20:33;;;;;;;4.55;2.10;;;;;;;;;;5052774;28;20025;-54
2021/09/17 09:23:08;;;;;;;3.75;1.60;;;;;;;;;;5052024;28;20048;-44
2021/09/17 09:25:36;;;;;;;3.72;1.80;;;;;;;;;;5052228;28;20021;-54
2021/09/17 09:28:16;;;;;;;4.72;1.92;;;;;;;;;;5045877;28;20068;-49
2021/09/17 09:30:43;;;;;;;5.57;1.95;;;;;;;;;;5052503;28;20032;-55
2021/09/17 09:33:46;;;;;;;3.20;1.60;;;;;;;;;;5051920;28;20096;-41
2021/09/17 09:36:13;;;;;;;3.45;1.67;;;;;;;;;;4969480;28;20561;-50
2021/09/17 09:38:47;;;;;;;4.80;1.90;;;;;;;;;;5033741;28;20041;-55
2021/09/17 09:41:21;;;;;;;3.55;1.60;;;;;;;;;;5051538;28;20045;-55
2021/09/17 09:43:53;;;;;;;4.13;1.63;;;;;;;;;;5051105;28;20108;-40
2021/09/17 09:46:26;;;;;;;3.67;1.60;;;;;;;;;;5036753;28;20044;-46
2021/09/17 09:49:10;;;;;;;2.50;1.65;;;;;;;;;;5014893;28;20033;-47
2021/09/17 09:52:14;;;;;;;4.07;1.92;;;;;;;;;;5028847;28;20022;-49
2021/09/17 09:54:41;;;;;;;2.90;1.42;;;;;;;;;;4950238;29;20050;-52
2021/09/17 09:57:08;;;;;;;3.95;1.75;;;;;;;;;;5004351;28;20064;-51
2021/09/17 09:59:36;;;;;;;1.80;1.40;;;;;;;;;;5011786;28;20113;-51
2021/09/17 10:02:04;;;;;;;3.08;1.70;;;;;;;;;;5012248;28;20022;-56
2021/09/17 10:04:31;;;;;;;3.72;1.63;;;;;;;;;;5011555;28;20348;-51
2021/09/17 10:07:09;;;;;;;3.92;1.70;;;;;;;;;;5012221;28;20113;-50
2021/09/17 10:09:41;;;;;;;3.58;1.90;;;;;;;;;;5031870;28;20115;-51
2021/09/17 10:12:09;;;;;;;4.43;1.63;;;;;;;;;;5032181;28;20424;-54
2021/09/17 10:14:36;;;;;;;5.47;1.88;;;;;;;;;;5031407;28;20206;-51
2021/09/17 10:17:06;;;;;;;5.25;1.90;;;;;;;;;;5030864;28;20036;-52
2021/09/17 10:19:33;;;;;;;5.25;1.60;;;;;;;;;;5029716;28;20068;-50
2021/09/17 10:22:01;;;;;;;6.28;1.83;;;;;;;;;;5031780;28;20060;-51
2021/09/17 10:24:28;;;;;;;4.65;1.65;;;;;;;;;;5031343;28;20022;-56
2021/09/17 10:26:59;;;;;;;3.30;1.67;;;;;;;;;;5031535;28;20535;-52
2021/09/17 10:29:43;;;;;;;4.68;1.80;;;;;;;;;;5042361;28;20409;-45
2021/09/17 10:32:29;;;;;;;6.68;1.58;;;;;;;;;;5023268;28;20046;-49
2021/09/17 10:35:20;;;;;;;4.75;1.45;;;;;;;;;;5024696;28;20037;-51
2021/09/17 10:37:56;;;;;;;4.95;1.92;;;;;;;;;;5007553;28;20470;-45
2021/09/17 10:40:32;;;;;;;2.58;1.60;;;;;;;;;;5014611;28;20057;-48
2021/09/17 10:43:12;;;;;;;8.88;2.25;;;;;;;;;;5031214;28;20017;-56
2021/09/17 10:45:39;;;;;;;7.55;1.80;;;;;;;;;;5011484;28;20037;-56
2021/09/17 10:48:09;;;;;;;8.88;2.20;;;;;;;;;;5012967;28;20076;-51
2021/09/17 10:50:44;;;;;;;11.48;2.08;;;;;;;;;;5030941;28;20026;-58
2021/09/17 10:53:11;;;;;;;8.18;1.85;;;;;;;;;;5031420;28;20018;-56
2021/09/17 10:55:44;;;;;;;4.22;1.80;;;;;;;;;;5031815;28;20105;-46
2021/09/17 10:58:30;;;;;;;9.60;2.10;;;;;;;;;;5034487;28;20018;-57
2021/09/17 11:01:01;;;;;;;5.13;1.77;;;;;;;;;;5054374;28;20437;-56
2021/09/17 11:03:37;;;;;;;7.78;2.13;;;;;;;;;;5055197;28;20404;-57
2021/09/17 11:06:25;;;;;;;4.80;1.80;;;;;;;;;;5054645;28;20021;-57
2021/09/17 11:08:54;;;;;;;8.20;2.08;;;;;;;;;;5048296;28;20416;-51
2021/09/17 11:11:55;;;;;;;5.25;2.10;;;;;;;;;;5044754;28;20101;-62
2021/09/17 11:14:25;;;;;;;11.90;2.15;;;;;;;;;;5013984;28;20030;-46
2021/09/17 11:16:53;;;;;;;85.90;4.38;;;;;;;;;;5028298;28;20018;-52
2021/09/17 11:19:20;;;;;;;58.38;5.60;;;;;;;;;;5029263;28;20040;-38
2021/09/17 11:21:49;;;;;;;96.00;8.30;;;;;;;;;;5034449;28;20026;-38
2021/09/17 11:24:20;;;;;;;137.07;11.52;;;;;;;;;;5034526;28;20167;-38
2021/09/17 11:26:48;;;;;;;147.18;8.57;;;;;;;;;;5031993;28;20508;-39
2021/09/17 11:29:17;;;;;;;63.97;6.53;;;;;;;;;;5017564;28;20163;-37
2021/09/17 11:31:49;;;;;;;57.75;6.10;;;;;;;;;;5020455;28;20160;-38
2021/09/17 11:34:17;;;;;;;39.85;5.75;;;;;;;;;;5019271;28;20045;-40
2021/09/17 11:36:46;;;;;;;40.40;5.15;;;;;;;;;;5017023;28;20026;-39
2021/09/17 11:39:16;;;;;;;28.90;4.13;;;;;;;;;;5014172;28;20022;-37
2021/09/17 11:41:44;;;;;;;27.83;4.45;;;;;;;;;;5012664;28;20075;-41
2021/09/17 11:44:11;;;;;;;21.70;3.85;;;;;;;;;;5015818;28;20022;-41
2021/09/17 11:46:38;;;;;;;29.02;4.15;;;;;;;;;;5018385;28;20053;-40
2021/09/17 11:49:06;;;;;;;31.83;4.97;;;;;;;;;;5013941;28;20512;-42
2021/09/17 11:51:33;;;;;;;49.88;5.25;;;;;;;;;;5024072;28;20071;-41
2021/09/17 11:54:00;;;;;;;38.67;4.43;;;;;;;;;;5022989;28;20135;-42
2021/09/17 11:56:27;;;;;;;41.17;5.82;;;;;;;;;;5017539;28;20570;-46
2021/09/17 11:58:54;;;;;;;39.22;5.15;;;;;;;;;;5015191;28;20018;-56
2021/09/17 12:01:25;;;;;;;45.22;5.70;;;;;;;;;;5025027;28;20096;-39
2021/09/17 12:03:54;;;;;;;65.13;6.72;;;;;;;;;;5019547;28;20481;-40
2021/09/17 12:06:21;;;;;;;56.00;6.47;;;;;;;;;;5016919;28;20026;-38
2021/09/17 12:08:49;;;;;;;47.92;5.78;;;;;;;;;;5019582;28;20123;-40
2021/09/17 12:11:20;;;;;;;49.58;6.13;;;;;;;;;;5026163;28;20024;-38
2021/09/17 12:13:54;;;;;;;62.97;5.47;;;;;;;;;;5015604;28;20102;-39
2021/09/17 12:16:21;;;;;;;40.42;5.93;;;;;;;;;;5015296;28;20355;-39
2021/09/17 12:19:08;;;;;;;34.95;5.65;;;;;;;;;;5012392;28;20608;-39
2021/09/17 12:21:36;;;;;;;44.60;6.00;;;;;;;;;;5020011;28;20072;-38
2021/09/17 12:24:16;;;;;;;32.92;5.47;;;;;;;;;;5014235;28;20014;-37
2021/09/17 12:26:51;;;;;;;34.08;4.50;;;;;;;;;;5022370;28;20033;-42
2021/09/17 12:29:18;;;;;;;31.05;4.20;;;;;;;;;;5012924;28;20029;-39
2021/09/17 12:31:45;;;;;;;27.42;4.07;;;;;;;;;;5014382;28;20038;-46
2021/09/17 12:34:14;;;;;;;27.85;4.85;;;;;;;;;;5013007;28;20030;-42
2021/09/17 12:36:42;;;;;;;25.20;5.28;;;;;;;;;;5017356;28;20397;-46
2021/09/17 12:39:09;;;;;;;29.55;4.32;;;;;;;;;;5012993;28;20026;-42
2021/09/17 12:41:37;;;;;;;23.15;4.05;;;;;;;;;;5022765;28;20477;-42
2021/09/17 12:44:09;;;;;;;21.52;4.50;;;;;;;;;;5016275;28;20067;-46
2021/09/17 12:46:40;;;;;;;23.77;4.20;;;;;;;;;;5013747;28;20052;-45
2021/09/17 12:49:07;;;;;;;23.27;4.10;;;;;;;;;;5012519;28;20151;-46
2021/09/17 12:51:34;;;;;;;29.98;4.00;;;;;;;;;;5021610;28;20022;-48
2021/09/17 12:54:09;;;;;;;35.42;4.68;;;;;;;;;;5022270;28;20363;-45
2021/09/17 12:56:36;;;;;;;28.17;4.97;;;;;;;;;;5017174;28;20572;-48
2021/09/17 12:59:11;;;;;;;33.83;5.15;;;;;;;;;;5012620;28;20017;-47
2021/09/17 13:01:39;;;;;;;23.80;4.85;;;;;;;;;;5020339;28;20065;-39
2021/09/17 13:04:06;;;;;;;35.05;5.22;;;;;;;;;;5022984;28;20010;-43
2021/09/17 13:06:33;;;;;;;22.10;4.97;;;;;;;;;;5013504;28;22573;-44
2021/09/17 13:09:01;;;;;;;21.63;4.55;;;;;;;;;;5014680;28;20460;-44
2021/09/17 13:11:28;;;;;;;31.33;4.43;;;;;;;;;;5014417;28;20383;-39
2021/09/17 13:13:55;;;;;;;27.05;4.30;;;;;;;;;;5018079;28;20037;-44
2021/09/17 13:16:22;;;;;;;22.80;4.45;;;;;;;;;;5017682;28;20018;-42
2021/09/17 13:18:49;;;;;;;25.25;4.30;;;;;;;;;;5009331;28;20032;-44
2021/09/17 13:21:17;;;;;;;26.15;4.40;;;;;;;;;;5013261;28;20062;-42
2021/09/17 13:23:44;;;;;;;29.25;4.90;;;;;;;;;;5018649;28;20437;-43
2021/09/17 13:26:11;;;;;;;20.95;4.32;;;;;;;;;;5015100;28;20105;-43
2021/09/17 13:28:38;;;;;;;20.92;4.68;;;;;;;;;;5015478;28;20038;-45
2021/09/17 13:31:06;;;;;;;20.10;4.03;;;;;;;;;;5012770;28;20028;-45
2021/09/17 13:33:33;;;;;;;24.80;4.97;;;;;;;;;;5018504;28;20065;-45
2021/09/17 13:36:00;;;;;;;20.10;4.03;;;;;;;;;;5015563;28;20505;-42
2021/09/17 13:38:27;;;;;;;21.10;3.95;;;;;;;;;;5013773;28;20157;-45
2021/09/17 13:40:54;;;;;;;23.05;5.15;;;;;;;;;;5011654;28;20142;-44
2021/09/17 13:43:21;;;;;;;20.45;4.85;;;;;;;;;;5019810;28;20026;-43
2021/09/17 13:45:49;;;;;;;21.27;4.57;;;;;;;;;;5014616;28;20034;-44
2021/09/17 13:48:16;;;;;;;28.48;4.70;;;;;;;;;;5014746;28;20021;-44
2021/09/17 13:50:43;;;;;;;23.45;4.72;;;;;;;;;;5020138;28;20547;-42
2021/09/17 13:53:10;;;;;;;33.05;5.05;;;;;;;;;;5013458;28;20112;-45
2021/09/17 13:55:38;;;;;;;21.75;5.40;;;;;;;;;;5014531;28;20025;-43
2021/09/17 13:58:05;;;;;;;18.15;4.45;;;;;;;;;;5013779;28;20013;-42
2021/09/17 14:00:33;;;;;;;37.05;5.22;;;;;;;;;;5022402;28;20371;-42
2021/09/17 14:03:00;;;;;;;29.77;5.00;;;;;;;;;;5016490;28;20120;-40
2021/09/17 14:05:28;;;;;;;30.17;5.15;;;;;;;;;;5014726;28;20030;-45
2021/09/17 14:07:58;;;;;;;24.85;5.25;;;;;;;;;;5016332;28;20482;-47
2021/09/17 14:10:25;;;;;;;34.05;5.07;;;;;;;;;;5011662;28;20033;-43
2021/09/17 14:12:52;;;;;;;36.10;5.75;;;;;;;;;;5012857;28;20067;-49
2021/09/17 14:15:19;;;;;;;26.10;4.88;;;;;;;;;;5016858;28;20096;-46
2021/09/17 14:17:47;;;;;;;22.85;5.05;;;;;;;;;;5012118;28;20034;-47
2021/09/17 14:20:14;;;;;;;21.88;4.97;;;;;;;;;;5016468;28;20115;-46
2021/09/17 14:22:41;;;;;;;39.05;5.50;;;;;;;;;;5010388;28;20438;-43
2021/09/17 14:25:09;;;;;;;27.15;5.57;;;;;;;;;;5019899;28;20485;-43
2021/09/17 14:27:37;;;;;;;28.48;6.18;;;;;;;;;;5016135;28;20034;-45
2021/09/17 14:30:04;;;;;;;37.97;5.88;;;;;;;;;;5014708;28;20492;-48
2021/09/17 14:32:32;;;;;;;29.42;5.75;;;;;;;;;;5016337;28;20020;-48
2021/09/17 14:34:59;;;;;;;32.97;5.93;;;;;;;;;;5016827;28;20169;-44
2021/09/17 14:37:26;;;;;;;20.30;5.30;;;;;;;;;;5017260;28;20018;-44
2021/09/17 14:39:53;;;;;;;34.63;5.47;;;;;;;;;;5019623;28;20524;-46
2021/09/17 14:42:20;;;;;;;26.98;5.32;;;;;;;;;;5028789;28;20061;-41